createdAt,value
2022-08-17T00:04:02.097Z,99660.98
2022-08-17T00:08:10.020Z,99655.21
2022-08-17T00:12:43.787Z,99660.13
2022-08-17T00:16:56.156Z,99654.36
2022-08-17T00:21:10.579Z,99650.15
2022-08-17T00:25:21.230Z,99656.49
2022-08-17T00:29:29.206Z,99660.06
2022-08-17T00:33:37.790Z,99663.52
2022-08-17T00:37:45.318Z,99662.52
2022-08-17T00:41:53.492Z,99660.59
2022-08-17T00:46:04.021Z,99655.85
2022-08-17T00:50:16.130Z,99661.25
2022-08-17T00:54:27.152Z,99661.21
2022-08-17T00:58:36.790Z,99662.45
2022-08-17T01:02:47.605Z,99660.58
2022-08-17T01:06:56.500Z,99657.38
2022-08-17T01:11:05.816Z,99652.27
2022-08-17T01:15:14.200Z,99653.27
2022-08-17T01:19:25.434Z,99649.55
2022-08-17T01:23:33.526Z,99650.80
2022-08-17T01:27:41.979Z,99646.47
2022-08-17T01:31:54.358Z,99643.64
2022-08-17T01:36:03.824Z,99639.79
2022-08-17T01:40:17.593Z,99645.86
2022-08-17T01:44:26.891Z,99648.52
2022-08-17T01:48:36.637Z,99647.48
2022-08-17T01:52:44.918Z,99645.68
2022-08-17T01:56:53.512Z,99646.54
2022-08-17T02:01:01.761Z,99652.89
2022-08-17T02:05:11.265Z,99654.27
2022-08-17T02:09:23.362Z,99650.21
2022-08-17T02:13:33.918Z,99648.23
2022-08-17T02:17:41.904Z,99645.11
2022-08-17T02:21:52.232Z,99637.54
2022-08-17T02:26:01.410Z,99637.21
2022-08-17T02:31:01.382Z,99633.56
2022-08-17T02:35:03.604Z,99633.64
2022-08-17T02:39:13.106Z,99630.58
2022-08-17T02:43:21.194Z,99636.80
2022-08-17T02:47:29.382Z,99641.77
2022-08-17T02:51:36.886Z,99642.40
2022-08-17T02:55:45.528Z,99643.47
2022-08-17T02:59:53.220Z,99648.46
2022-08-17T03:04:00.986Z,99648.34
2022-08-17T03:08:13.234Z,99643.70
2022-08-17T03:12:21.239Z,99642.87
2022-08-17T03:16:31.616Z,99641.59
2022-08-17T03:20:39.553Z,99638.89
2022-08-17T03:24:47.383Z,99645.53
2022-08-17T03:28:55.899Z,99649.55
2022-08-17T03:33:06.869Z,99653.42
2022-08-17T03:37:14.662Z,99661.85
2022-08-17T03:41:22.602Z,99664.35
2022-08-17T03:45:48.808Z,99663.66
2022-08-17T03:50:18.234Z,99664.73
2022-08-17T03:54:43.554Z,99668.34
2022-08-17T03:58:51.788Z,99679.32
2022-08-17T04:03:00.483Z,99680.30
2022-08-17T04:07:09.270Z,99673.51
2022-08-17T04:11:16.675Z,99673.02
2022-08-17T04:15:24.993Z,99675.98
2022-08-17T04:19:32.897Z,99684.10
2022-08-17T04:23:40.787Z,99689.38
2022-08-17T04:27:49.354Z,99693.98
2022-08-17T04:31:58.498Z,99699.46
2022-08-17T04:36:08.976Z,99707.21
2022-08-17T04:40:37.851Z,99710.96
2022-08-17T04:44:46.269Z,99713.91
2022-08-17T04:48:56.832Z,99712.80
2022-08-17T04:53:05.479Z,99709.40
2022-08-17T04:57:12.969Z,99713.67
2022-08-17T05:01:23.938Z,99714.94
2022-08-17T05:05:33.695Z,99716.27
2022-08-17T05:09:41.246Z,99719.79
2022-08-17T05:13:50.434Z,99719.43
2022-08-17T05:17:58.592Z,99715.95
2022-08-17T05:22:09.190Z,99718.55
2022-08-17T05:26:20.477Z,99712.58
2022-08-17T05:30:35.196Z,99712.38
2022-08-17T05:34:43.027Z,99717.15
2022-08-17T05:38:50.947Z,99716.27
2022-08-17T05:43:10.083Z,99714.90
2022-08-17T05:47:18.088Z,99718.35
2022-08-17T05:51:43.560Z,99717.45
2022-08-17T05:55:55.323Z,99719.11
2022-08-17T06:00:10.031Z,99724.22
2022-08-17T06:04:23.414Z,99725.53
2022-08-17T06:08:35.979Z,99723.71
2022-08-17T06:12:55.650Z,99726.58
2022-08-17T06:17:06.476Z,99726.00
2022-08-17T06:21:19.026Z,99727.98
2022-08-17T06:25:35.714Z,99730.13
2022-08-17T06:29:46.625Z,99728.63
2022-08-17T06:33:54.530Z,99736.23
2022-08-17T06:38:36.929Z,99738.02
2022-08-17T06:43:06.651Z,99733.66
2022-08-17T06:47:28.578Z,99734.44
2022-08-17T06:51:40.799Z,99741.93
2022-08-17T06:55:51.908Z,99748.84
2022-08-17T07:00:01.400Z,99748.70
2022-08-17T07:04:12.562Z,99749.68
2022-08-17T07:08:29.677Z,99747.85
2022-08-17T07:12:42.758Z,99751.23
2022-08-17T07:16:52.970Z,99754.64
2022-08-17T07:21:04.491Z,99756.20
2022-08-17T07:25:18.659Z,99761.34
2022-08-17T07:29:28.953Z,99761.70
2022-08-17T07:33:39.411Z,99766.64
2022-08-17T07:37:54.559Z,99764.15
2022-08-17T07:42:07.798Z,99760.71
2022-08-17T07:46:39.100Z,99758.77
2022-08-17T07:50:49.597Z,99756.56
2022-08-17T07:54:59.414Z,99759.17
2022-08-17T07:59:23.214Z,99760.48
2022-08-17T08:03:34.466Z,99759.14
2022-08-17T08:07:51.342Z,99754.90
2022-08-17T08:12:00.245Z,99755.84
2022-08-17T08:16:25.599Z,99758.61
2022-08-17T08:20:51.943Z,99764.31
2022-08-17T08:25:09.622Z,99762.77
2022-08-17T08:29:28.487Z,99767.71
2022-08-17T08:33:46.097Z,99763.38
2022-08-17T08:38:01.487Z,99766.91
2022-08-17T08:42:14.843Z,99768.91
2022-08-17T08:46:29.691Z,99764.98
2022-08-17T08:50:46.141Z,99761.34
2022-08-17T08:54:58.041Z,99753.48
2022-08-17T08:59:14.535Z,99754.50
2022-08-17T09:03:51.850Z,99748.88
2022-08-17T09:08:15.243Z,99746.52
2022-08-17T09:12:29.972Z,99748.99
2022-08-17T09:16:42.571Z,99751.48
2022-08-17T09:20:53.916Z,99750.10
2022-08-17T09:25:07.106Z,99748.64
2022-08-17T09:29:18.521Z,99743.54
2022-08-17T09:33:28.500Z,99743.71
2022-08-17T09:37:41.686Z,99744.56
2022-08-17T09:41:53.771Z,99745.00
2022-08-17T09:46:04.490Z,99749.85
2022-08-17T09:50:17.030Z,99747.17
2022-08-17T09:54:44.500Z,99752.41
2022-08-17T09:59:08.950Z,99754.70
2022-08-17T10:03:34.966Z,99745.73
2022-08-17T10:07:46.944Z,99744.56
2022-08-17T10:12:17.342Z,99746.91
2022-08-17T10:16:35.779Z,99751.41
2022-08-17T10:20:51.375Z,99755.67
2022-08-17T10:25:23.739Z,99754.05
2022-08-17T10:29:47.494Z,99754.73
2022-08-17T10:34:07.113Z,99757.80
2022-08-17T10:38:41.636Z,99755.07
2022-08-17T10:42:59.334Z,99749.45
2022-08-17T10:47:11.559Z,99746.80
2022-08-17T10:51:39.405Z,99751.77
2022-08-17T10:56:24.448Z,99750.40
2022-08-17T11:01:13.011Z,99754.73
2022-08-17T11:05:38.953Z,99753.17
2022-08-17T11:10:19.021Z,99741.97
2022-08-17T11:14:41.445Z,99732.09
2022-08-17T11:19:15.829Z,99727.27
2022-08-17T11:23:32.620Z,99721.71
2022-08-17T11:27:40.663Z,99719.73
2022-08-17T11:32:02.593Z,99716.86
2022-08-17T11:36:18.368Z,99725.83
2022-08-17T11:40:41.252Z,99719.11
2022-08-17T11:44:54.904Z,99717.34
2022-08-17T11:49:26.748Z,99711.98
2022-08-17T11:58:45.110Z,99698.45
2022-08-17T12:03:23.719Z,99696.21
2022-08-17T12:07:33.415Z,99691.77
2022-08-17T12:12:10.950Z,99691.88
2022-08-17T12:16:19.368Z,99693.80
2022-08-17T12:20:30.172Z,99699.23
2022-08-17T12:24:47.372Z,99697.96
2022-08-17T12:28:58.522Z,99698.13
2022-08-17T12:33:25.000Z,99699.91
2022-08-17T12:37:36.495Z,99696.77
2022-08-17T12:41:47.144Z,99695.73
2022-08-17T12:46:01.214Z,99693.41
2022-08-17T12:50:29.638Z,99691.20
2022-08-17T12:54:43.198Z,99682.38
2022-08-17T12:58:53.800Z,99674.70
2022-08-17T13:03:06.266Z,99674.10
2022-08-17T13:07:14.771Z,99669.71
2022-08-17T13:11:25.506Z,99673.00
2022-08-17T13:15:37.154Z,99671.86
2022-08-17T13:19:51.273Z,99664.38
2022-08-17T13:24:02.176Z,99663.27
2022-08-17T13:28:35.446Z,99664.28
2022-08-17T13:32:47.426Z,99663.84
2022-08-17T13:37:35.335Z,99659.59
2022-08-17T13:41:43.385Z,99660.75
2022-08-17T13:45:53.302Z,99661.24
2022-08-17T13:50:01.166Z,99656.82
2022-08-17T13:54:21.151Z,99656.79
2022-08-17T13:58:30.562Z,99646.16
2022-08-17T14:02:38.988Z,99647.68
2022-08-17T14:06:53.990Z,99649.30
2022-08-17T14:11:02.407Z,99643.94
2022-08-17T14:15:12.282Z,99645.92
2022-08-17T14:19:22.053Z,99644.27
2022-08-17T14:23:33.151Z,99643.05
2022-08-17T14:27:51.970Z,99643.27
2022-08-17T14:32:06.707Z,99638.41
2022-08-17T14:36:15.968Z,99639.20
2022-08-17T14:40:25.801Z,99639.46
2022-08-17T14:44:33.830Z,99640.05
2022-08-17T14:48:41.813Z,99640.79
2022-08-17T14:52:49.977Z,99638.16
2022-08-17T14:57:22.247Z,99638.27
2022-08-17T15:01:26.420Z,99632.30
2022-08-17T15:05:37.116Z,99633.30
2022-08-17T15:09:46.154Z,99637.58
2022-08-17T15:13:57.218Z,99638.31
2022-08-17T15:18:05.153Z,99639.55
2022-08-17T15:22:25.238Z,99637.38
2022-08-17T15:26:33.368Z,99635.02
2022-08-17T15:30:43.653Z,99639.80
2022-08-17T15:34:51.539Z,99643.34
2022-08-17T15:39:00.189Z,99638.08
2022-08-17T15:43:11.545Z,99637.19
2022-08-17T15:47:20.602Z,99641.04
2022-08-17T15:51:31.014Z,99640.55
2022-08-17T15:55:39.749Z,99640.55
2022-08-17T15:59:47.407Z,99648.80
2022-08-17T16:04:06.563Z,99646.55
2022-08-17T16:08:20.717Z,99646.40
2022-08-17T16:12:29.376Z,99645.52
2022-08-17T16:16:37.088Z,99647.37
2022-08-17T16:20:45.184Z,99644.17
2022-08-17T16:24:57.377Z,99643.52
2022-08-17T16:29:07.680Z,99650.44
2022-08-17T16:33:17.201Z,99649.87
2022-08-17T16:37:25.454Z,99652.01
2022-08-17T16:41:46.061Z,99651.09
2022-08-17T16:45:55.142Z,99652.75
2022-08-17T16:50:04.855Z,99650.65
2022-08-17T16:54:17.575Z,99649.35
2022-08-17T16:58:25.571Z,99652.21
2022-08-17T17:02:35.076Z,99650.84
2022-08-17T17:06:48.407Z,99647.02
2022-08-17T17:10:58.275Z,99642.32
2022-08-17T17:15:10.536Z,99635.85
2022-08-17T17:19:34.289Z,99637.23
2022-08-17T17:23:53.984Z,99638.52
2022-08-17T17:28:07.232Z,99643.42
2022-08-17T17:32:22.289Z,99642.36
2022-08-17T17:36:34.426Z,99645.58
2022-08-17T17:40:44.370Z,99636.73
2022-08-17T17:44:55.059Z,99638.23
2022-08-17T17:49:04.095Z,99643.64
2022-08-17T17:53:17.076Z,99644.67
2022-08-17T17:57:39.291Z,99651.00
2022-08-17T18:01:55.140Z,99646.85
2022-08-17T18:06:21.701Z,99643.13
2022-08-17T18:10:35.287Z,99645.33
2022-08-17T18:14:58.301Z,99649.31
2022-08-17T18:19:06.880Z,99659.64
2022-08-17T18:23:15.721Z,99666.36
2022-08-17T18:27:27.766Z,99668.01
2022-08-17T18:31:35.498Z,99663.33
2022-08-17T18:35:59.335Z,99661.66
2022-08-17T18:40:34.627Z,99657.99
2022-08-17T18:44:49.597Z,99657.67
2022-08-17T18:49:01.354Z,99663.60
2022-08-17T18:53:26.624Z,99664.36
2022-08-17T18:57:39.780Z,99665.70
2022-08-17T19:02:15.984Z,99661.82
2022-08-17T19:06:32.198Z,99664.77
2022-08-17T19:10:46.238Z,99666.59
2022-08-17T19:14:57.044Z,99672.99
2022-08-17T19:19:09.519Z,99682.94
2022-08-17T19:23:20.077Z,99688.16
2022-08-17T19:27:41.961Z,99697.98
2022-08-17T19:31:56.346Z,99701.70
2022-08-17T19:36:10.331Z,99702.48
2022-08-17T19:40:51.090Z,99707.11
2022-08-17T19:44:59.418Z,99720.08
2022-08-17T19:49:11.626Z,99716.98
2022-08-17T19:53:36.861Z,99715.17
2022-08-17T19:58:03.927Z,99716.19
2022-08-17T20:02:32.127Z,99711.05
2022-08-17T20:06:43.039Z,99711.33
2022-08-17T20:10:55.376Z,99704.98
2022-08-17T20:15:09.536Z,99702.61
2022-08-17T20:19:24.739Z,99698.63
2022-08-17T20:23:46.358Z,99694.98
2022-08-17T20:28:05.568Z,99692.63
2022-08-17T20:32:27.479Z,99696.18
2022-08-17T20:36:37.059Z,99688.70
2022-08-17T20:41:15.397Z,99687.69
2022-08-17T20:45:52.900Z,99685.80
2022-08-17T20:50:03.495Z,99678.60
2022-08-17T20:54:44.539Z,99678.30
2022-08-17T20:58:52.478Z,99682.89
2022-08-17T21:03:51.070Z,99674.94
2022-08-17T21:08:02.224Z,99674.50
2022-08-17T21:12:11.597Z,99676.36
2022-08-17T21:16:34.930Z,99678.34
2022-08-17T21:20:50.199Z,99684.91
2022-08-17T21:25:03.501Z,99686.46
2022-08-17T21:29:31.827Z,99691.67
2022-08-17T21:33:42.078Z,99694.64
2022-08-17T21:37:50.650Z,99696.38
2022-08-17T21:42:00.245Z,99704.95
2022-08-17T21:46:11.850Z,99701.16
2022-08-17T21:50:22.528Z,99693.98
2022-08-17T21:54:37.004Z,99693.08
2022-08-17T21:58:48.694Z,99697.79
2022-08-17T22:03:01.763Z,99696.65
2022-08-17T22:07:14.870Z,99705.18
2022-08-17T22:11:22.660Z,99706.11
2022-08-17T22:15:30.190Z,99708.58
2022-08-17T22:19:38.337Z,99717.05
2022-08-17T22:24:05.715Z,99722.95
2022-08-17T22:28:14.989Z,99723.85
2022-08-17T22:32:45.095Z,99726.40
2022-08-17T22:36:53.820Z,99728.36
2022-08-17T22:41:37.795Z,99727.33
2022-08-17T22:45:54.631Z,99734.19
2022-08-17T22:50:04.420Z,99733.04
2022-08-17T22:54:37.055Z,99732.38
2022-08-17T22:59:09.311Z,99742.55
2022-08-17T23:03:20.121Z,99749.71
2022-08-17T23:07:28.218Z,99754.26
2022-08-17T23:11:49.109Z,99751.52
2022-08-17T23:15:58.165Z,99748.42
2022-08-17T23:20:08.691Z,99754.42
2022-08-17T23:24:19.350Z,99747.36
2022-08-17T23:28:28.734Z,99746.52
2022-08-17T23:32:53.327Z,99744.06
2022-08-17T23:37:04.533Z,99740.87
2022-08-17T23:41:15.510Z,99740.66
2022-08-17T23:45:24.162Z,99734.91
2022-08-17T23:49:31.858Z,99746.81
2022-08-17T23:53:42.429Z,99745.64
2022-08-17T23:57:50.863Z,99745.45
